Time;durP1;ratioP1;P1;durP2;ratioP2;P2;SDS_P1;SDS_P2;PMS_P1;PMS_P2;Temp;Humidity;BMP_temperature;BMP_pressure;BME280_temperature;BME280_humidity;BME280_pressure;Samples;Min_cycle;Max_cycle;Signal;HPM_P1;HPM_P2
2024/04/23 00:02:15;;;;;;;1.83;0.80;;;3.30;99.90;;;;;;4430992;32;20069;-62
2024/04/23 00:04:40;;;;;;;0.40;0.40;;;3.40;99.90;;;;;;4431195;32;20085;-62
2024/04/23 00:07:06;;;;;;;0.50;0.50;;;3.50;99.90;;;;;;4431542;32;20324;-62
2024/04/23 00:09:31;;;;;;;0.60;0.60;;;3.30;99.90;;;;;;4427883;32;20081;-62
2024/04/23 00:11:57;;;;;;;0.52;0.52;;;3.20;99.90;;;;;;4427418;32;20061;-62
2024/04/23 00:14:22;;;;;;;0.70;0.70;;;3.10;99.90;;;;;;4432746;32;20517;-60
2024/04/23 00:16:57;;;;;;;0.65;0.65;;;3.10;99.90;;;;;;4432630;32;20127;-61
2024/04/23 00:19:23;;;;;;;5.03;1.12;;;3.10;99.90;;;;;;4431313;32;20132;-62
2024/04/23 00:21:48;;;;;;;0.57;0.57;;;3.10;99.90;;;;;;4432609;32;20151;-61
2024/04/23 00:24:14;;;;;;;0.60;0.60;;;2.90;99.90;;;;;;4428431;32;20069;-61
2024/04/23 00:26:39;;;;;;;1.85;1.45;;;2.80;99.90;;;;;;4431814;32;20069;-62
2024/04/23 00:29:05;;;;;;;0.40;0.40;;;2.70;99.90;;;;;;4428857;32;20069;-62
2024/04/23 00:31:30;;;;;;;0.30;0.30;;;2.70;99.90;;;;;;4431372;32;20069;-62
2024/04/23 00:33:56;;;;;;;2.25;0.88;;;2.80;99.90;;;;;;4431974;32;20098;-62
2024/04/23 00:36:22;;;;;;;0.50;0.50;;;2.70;99.90;;;;;;4432856;32;20078;-62
2024/04/23 00:38:47;;;;;;;0.40;0.40;;;2.70;99.90;;;;;;4432478;32;20085;-62
2024/04/23 00:41:13;;;;;;;0.40;0.40;;;2.70;99.90;;;;;;4428732;32;20537;-61
2024/04/23 00:43:38;;;;;;;0.60;0.60;;;2.70;99.90;;;;;;4426771;32;20109;-62
2024/04/23 00:46:07;;;;;;;0.32;0.32;;;2.70;99.90;;;;;;4432030;32;20068;-61
2024/04/23 00:48:33;;;;;;;0.60;0.60;;;2.70;99.90;;;;;;4431080;32;20069;-62
2024/04/23 00:50:59;;;;;;;0.45;0.45;;;2.60;99.90;;;;;;4430663;32;20062;-60
2024/04/23 00:53:25;;;;;;;0.45;0.45;;;2.50;99.90;;;;;;4430520;32;20132;-59
2024/04/23 00:55:51;;;;;;;0.30;0.30;;;2.40;99.90;;;;;;4438870;32;20073;-62
2024/04/23 00:58:17;;;;;;;3.85;2.03;;;2.40;99.90;;;;;;4440862;32;20165;-64
2024/04/23 01:00:43;;;;;;;0.50;0.50;;;2.60;99.90;;;;;;4439577;32;20061;-62
2024/04/23 01:03:08;;;;;;;0.65;0.65;;;2.70;99.90;;;;;;4440081;32;20473;-62
2024/04/23 01:05:34;;;;;;;0.85;0.80;;;2.70;99.90;;;;;;4441333;32;20056;-61
2024/04/23 01:08:00;;;;;;;0.30;0.30;;;2.60;99.90;;;;;;4439350;32;20516;-61
2024/04/23 01:10:25;;;;;;;0.40;0.40;;;2.80;99.90;;;;;;4439953;32;20124;-61
2024/04/23 01:12:51;;;;;;;0.40;0.40;;;2.90;99.90;;;;;;4440052;32;20591;-62
2024/04/23 01:15:17;;;;;;;1.45;1.15;;;2.90;99.90;;;;;;4437476;32;20368;-60
2024/04/23 01:17:46;;;;;;;0.60;0.60;;;2.90;99.90;;;;;;4428239;32;20134;-62
2024/04/23 01:20:13;;;;;;;0.52;0.52;;;2.80;99.90;;;;;;4440015;32;20078;-62
2024/04/23 01:23:03;;;;;;;0.40;0.40;;;2.80;99.90;;;;;;4419850;32;20253;-61
2024/04/23 01:25:29;;;;;;;0.43;0.43;;;2.90;99.90;;;;;;4429467;32;20139;-62
2024/04/23 01:27:56;;;;;;;1.17;1.08;;;2.90;99.90;;;;;;4437568;32;20516;-61
2024/04/23 01:30:23;;;;;;;0.60;0.60;;;2.90;99.90;;;;;;4438004;32;20082;-62
2024/04/23 01:32:50;;;;;;;0.88;0.88;;;2.90;99.90;;;;;;4430775;32;20073;-61
2024/04/23 01:35:16;;;;;;;0.40;0.40;;;3.00;99.90;;;;;;4435423;32;20131;-61
2024/04/23 01:37:45;;;;;;;0.30;0.30;;;3.00;99.90;;;;;;4439658;32;20452;-62
2024/04/23 01:40:12;;;;;;;1.00;0.70;;;2.90;99.90;;;;;;4439895;32;20439;-62
2024/04/23 01:42:38;;;;;;;0.30;0.30;;;2.90;99.90;;;;;;4440121;32;20489;-61
2024/04/23 01:45:06;;;;;;;0.45;0.45;;;2.80;99.90;;;;;;4439213;32;20134;-62
2024/04/23 01:47:32;;;;;;;0.40;0.40;;;2.70;99.90;;;;;;4419196;32;20121;-62
2024/04/23 01:49:57;;;;;;;0.30;0.30;;;2.70;99.90;;;;;;4417138;32;20073;-61
2024/04/23 01:52:23;;;;;;;0.30;0.30;;;2.70;99.90;;;;;;4433269;32;20107;-63
2024/04/23 01:54:49;;;;;;;0.60;0.60;;;2.60;99.90;;;;;;4430028;32;20077;-63
2024/04/23 01:57:15;;;;;;;0.30;0.30;;;2.60;99.90;;;;;;4436880;32;20546;-62
2024/04/23 01:59:49;;;;;;;0.50;0.50;;;2.40;99.90;;;;;;4438626;32;20092;-62
2024/04/23 02:02:17;;;;;;;0.30;0.30;;;2.40;99.90;;;;;;4428601;32;20053;-62
2024/04/23 02:04:43;;;;;;;1.45;1.30;;;2.60;99.90;;;;;;4438493;32;20081;-61
2024/04/23 02:07:09;;;;;;;0.40;0.40;;;2.40;99.90;;;;;;4439762;32;20101;-62
2024/04/23 02:09:35;;;;;;;0.30;0.30;;;2.50;99.90;;;;;;4439582;32;20089;-61
2024/04/23 02:12:03;;;;;;;0.47;0.47;;;2.50;99.90;;;;;;4438143;32;20578;-60
2024/04/23 02:14:29;;;;;;;0.40;0.40;;;2.40;99.90;;;;;;4436094;32;20085;-61
2024/04/23 02:16:55;;;;;;;0.40;0.40;;;2.30;99.90;;;;;;4428909;32;20069;-62
2024/04/23 02:19:20;;;;;;;1.67;1.17;;;2.20;99.90;;;;;;4427904;32;20088;-61
2024/04/23 02:21:46;;;;;;;0.30;0.30;;;2.20;99.90;;;;;;4440472;32;20086;-60
2024/04/23 02:24:12;;;;;;;0.40;0.40;;;2.20;99.90;;;;;;4438775;32;20077;-62
2024/04/23 02:26:37;;;;;;;0.30;0.30;;;2.20;99.90;;;;;;4438815;32;20072;-61
2024/04/23 02:29:03;;;;;;;0.30;0.30;;;2.30;99.90;;;;;;4438024;32;20098;-62
2024/04/23 02:31:28;;;;;;;0.32;0.32;;;2.20;99.90;;;;;;4439656;32;20073;-62
2024/04/23 02:33:54;;;;;;;0.40;0.40;;;2.20;99.90;;;;;;4438877;32;20077;-62
2024/04/23 02:36:19;;;;;;;0.50;0.50;;;2.10;99.90;;;;;;4438319;32;20111;-63
2024/04/23 02:38:45;;;;;;;0.50;0.50;;;1.90;99.90;;;;;;4440541;32;20434;-61
2024/04/23 02:41:10;;;;;;;0.40;0.40;;;1.70;99.90;;;;;;4435245;32;20057;-62
2024/04/23 02:43:36;;;;;;;0.62;0.62;;;1.80;99.90;;;;;;4437546;32;20077;-61
2024/04/23 02:46:02;;;;;;;0.37;0.37;;;1.80;99.90;;;;;;4437389;32;20525;-62
2024/04/23 02:48:27;;;;;;;4.37;0.60;;;1.90;99.90;;;;;;4436712;32;20729;-60
2024/04/23 02:50:53;;;;;;;0.30;0.30;;;1.80;99.90;;;;;;4438166;32;20057;-63
2024/04/23 02:53:18;;;;;;;0.50;0.50;;;1.70;99.90;;;;;;4438712;32;20116;-62
2024/04/23 02:55:44;;;;;;;0.45;0.45;;;1.60;99.90;;;;;;4428850;32;20085;-60
2024/04/23 02:58:09;;;;;;;0.70;0.70;;;1.60;99.90;;;;;;4430054;32;20053;-61
2024/04/23 03:00:35;;;;;;;0.45;0.45;;;1.70;99.90;;;;;;4429687;32;20073;-61
2024/04/23 03:03:00;;;;;;;0.30;0.30;;;1.90;99.90;;;;;;4429457;32;20552;-62
2024/04/23 03:05:26;;;;;;;0.60;0.60;;;2.00;99.90;;;;;;4430125;32;20069;-62
2024/04/23 03:07:51;;;;;;;0.50;0.50;;;2.00;99.90;;;;;;4430267;32;20074;-62
2024/04/23 03:10:17;;;;;;;0.73;0.73;;;2.00;99.90;;;;;;4431046;32;20073;-63
2024/04/23 03:12:43;;;;;;;0.40;0.40;;;2.00;99.90;;;;;;4431988;32;20430;-62
2024/04/23 03:15:08;;;;;;;23.15;1.55;;;2.00;99.90;;;;;;4424909;32;20073;-62
2024/04/23 03:17:34;;;;;;;0.40;0.40;;;1.90;99.90;;;;;;4430508;32;20117;-61
2024/04/23 03:19:59;;;;;;;0.40;0.40;;;1.90;99.90;;;;;;4430897;32;20054;-61
2024/04/23 03:22:25;;;;;;;0.88;0.88;;;1.90;99.90;;;;;;4428704;32;20069;-62
2024/04/23 03:24:50;;;;;;;0.40;0.40;;;1.90;99.90;;;;;;4431189;32;20100;-62
2024/04/23 03:27:16;;;;;;;0.50;0.50;;;1.90;99.90;;;;;;4429628;32;20069;-62
2024/04/23 03:29:42;;;;;;;0.30;0.30;;;2.00;99.90;;;;;;4432530;32;20069;-62
2024/04/23 03:32:07;;;;;;;0.40;0.40;;;1.90;99.90;;;;;;4436398;32;20077;-61
2024/04/23 03:34:33;;;;;;;0.50;0.50;;;1.70;99.90;;;;;;4433477;32;20057;-63
2024/04/23 03:36:59;;;;;;;0.40;0.40;;;1.70;99.90;;;;;;4432268;32;20070;-62
2024/04/23 03:39:25;;;;;;;0.60;0.60;;;1.70;99.90;;;;;;4432656;32;20069;-62
2024/04/23 03:41:55;;;;;;;0.40;0.40;;;1.70;99.90;;;;;;4432510;32;20058;-62
2024/04/23 03:44:21;;;;;;;0.50;0.50;;;1.80;99.90;;;;;;4434902;32;20061;-62
2024/04/23 03:46:47;;;;;;;0.40;0.40;;;1.70;99.90;;;;;;4431292;32;20131;-62
2024/04/23 03:49:12;;;;;;;0.30;0.30;;;1.60;99.90;;;;;;4432878;32;20073;-61
2024/04/23 03:51:38;;;;;;;0.40;0.40;;;1.60;99.90;;;;;;4435019;32;20057;-62
2024/04/23 03:54:03;;;;;;;0.40;0.40;;;1.50;99.90;;;;;;4431667;32;20128;-61
2024/04/23 03:56:29;;;;;;;0.47;0.47;;;1.50;99.90;;;;;;4429493;32;20120;-60
2024/04/23 03:58:55;;;;;;;0.60;0.60;;;1.60;99.90;;;;;;4429115;32;20069;-59
2024/04/23 04:01:20;;;;;;;0.30;0.30;;;1.60;99.90;;;;;;4431611;32;20113;-62
2024/04/23 04:06:19;;;;;;;0.30;0.30;;;1.50;99.90;;;;;;4431317;32;20061;-61
2024/04/23 04:06:31;;;;;;;0.30;0.30;;;1.50;99.90;;;;;;4431238;32;20510;-62
2024/04/23 04:08:57;;;;;;;0.30;0.30;;;1.50;99.90;;;;;;4430911;32;20065;-62
2024/04/23 04:11:22;;;;;;;0.47;0.47;;;1.60;99.90;;;;;;4428540;32;20061;-63
2024/04/23 04:13:48;;;;;;;0.45;0.45;;;1.50;99.90;;;;;;4435063;32;20077;-63
2024/04/23 04:16:13;;;;;;;0.50;0.50;;;1.50;99.90;;;;;;4431017;32;20139;-62
2024/04/23 04:18:40;;;;;;;0.30;0.30;;;1.40;99.90;;;;;;4431355;32;20082;-63
2024/04/23 04:21:05;;;;;;;0.37;0.37;;;1.40;99.90;;;;;;4410279;32;20090;-63
2024/04/23 04:23:31;;;;;;;0.50;0.50;;;1.40;99.90;;;;;;4422579;32;20089;-61
2024/04/23 04:25:57;;;;;;;0.35;0.35;;;1.50;99.90;;;;;;4429614;32;20065;-62
2024/04/23 04:28:22;;;;;;;0.30;0.30;;;1.50;99.90;;;;;;4428126;32;20054;-61
2024/04/23 04:30:48;;;;;;;0.40;0.40;;;1.50;99.90;;;;;;4430632;32;20057;-62
2024/04/23 04:33:14;;;;;;;0.60;0.60;;;1.40;99.90;;;;;;4432197;32;20087;-62
2024/04/23 04:35:39;;;;;;;0.35;0.35;;;1.40;99.90;;;;;;4432975;32;21719;-60
2024/04/23 04:38:05;;;;;;;0.30;0.30;;;1.40;99.90;;;;;;4432747;32;20069;-62
2024/04/23 04:40:31;;;;;;;0.65;0.65;;;1.40;99.90;;;;;;4430216;32;20061;-62
2024/04/23 04:42:57;;;;;;;0.40;0.40;;;1.50;99.90;;;;;;4432251;32;20124;-62
2024/04/23 04:45:23;;;;;;;5.68;0.98;;;1.50;99.90;;;;;;4431467;32;20128;-61
2024/04/23 04:47:49;;;;;;;0.30;0.30;;;1.60;99.90;;;;;;4431565;32;20169;-62
2024/04/23 04:50:17;;;;;;;0.40;0.40;;;1.60;99.90;;;;;;4423809;32;20077;-61
2024/04/23 04:52:43;;;;;;;0.43;0.43;;;1.60;99.90;;;;;;4422967;32;20509;-61
2024/04/23 04:55:09;;;;;;;0.35;0.35;;;1.70;99.90;;;;;;4438770;32;20068;-61
2024/04/23 04:57:34;;;;;;;0.70;0.70;;;1.80;99.90;;;;;;4426908;32;20065;-60
2024/04/23 05:00:00;;;;;;;0.45;0.45;;;1.70;99.90;;;;;;4438674;32;20631;-59
2024/04/23 05:02:26;;;;;;;0.52;0.52;;;1.60;99.90;;;;;;4437015;32;20392;-62
2024/04/23 05:04:54;;;;;;;0.40;0.40;;;1.70;99.90;;;;;;4426671;32;20093;-61
2024/04/23 05:07:19;;;;;;;0.88;0.80;;;1.70;99.90;;;;;;4411493;32;20124;-60
2024/04/23 05:09:46;;;;;;;0.55;0.55;;;1.70;99.90;;;;;;4435095;32;20077;-61
2024/04/23 05:12:13;;;;;;;0.40;0.40;;;1.80;99.90;;;;;;4436254;32;20532;-62
2024/04/23 05:14:39;;;;;;;0.60;0.60;;;1.90;99.90;;;;;;4412303;32;20568;-61
2024/04/23 05:17:04;;;;;;;0.30;0.30;;;1.90;99.90;;;;;;4426924;32;20085;-61
2024/04/23 05:19:30;;;;;;;10.52;2.15;;;2.00;99.90;;;;;;4406687;32;20227;-61
2024/04/23 05:21:56;;;;;;;0.50;0.50;;;2.00;99.90;;;;;;4419510;32;20143;-62
2024/04/23 05:24:21;;;;;;;0.30;0.30;;;2.10;99.90;;;;;;4422140;32;20129;-61
2024/04/23 05:26:47;;;;;;;0.43;0.43;;;2.20;99.90;;;;;;4418766;32;20134;-61
2024/04/23 05:29:12;;;;;;;0.40;0.40;;;2.30;99.90;;;;;;4433563;32;20491;-61
2024/04/23 05:32:54;;;;;;;0.40;0.40;;;2.40;99.90;;;;;;4435632;32;20093;-62
2024/04/23 05:34:24;;;;;;;0.40;0.40;;;2.50;99.90;;;;;;4421452;32;20764;-61
2024/04/23 05:36:50;;;;;;;0.60;0.60;;;2.40;99.90;;;;;;4433331;32;20062;-62
2024/04/23 05:39:15;;;;;;;0.40;0.40;;;2.40;99.90;;;;;;4436061;32;20061;-61
2024/04/23 05:41:41;;;;;;;0.30;0.30;;;2.50;99.90;;;;;;4428020;32;21735;-61
2024/04/23 05:44:06;;;;;;;1.05;0.73;;;2.50;99.90;;;;;;4428226;32;20175;-61
2024/04/23 05:46:32;;;;;;;0.40;0.40;;;2.60;99.90;;;;;;4424764;32;20840;-61
2024/04/23 05:49:37;;;;;;;0.30;0.30;;;2.70;99.90;;;;;;4417516;32;20145;-61
2024/04/23 05:52:43;;;;;;;0.40;0.40;;;2.70;99.90;;;;;;4399949;32;20085;-61
2024/04/23 05:55:44;;;;;;;0.43;0.43;;;2.80;99.90;;;;;;4388810;32;20522;-62
2024/04/23 05:58:09;;;;;;;;;;;2.80;99.90;;;;;;4398834;32;20096;-62
2024/04/23 06:00:36;;;;;;;0.30;0.30;;;2.90;99.90;;;;;;4406591;32;19968;-62
2024/04/23 06:03:02;;;;;;;0.73;0.73;;;2.80;99.90;;;;;;4391448;32;20756;-61
2024/04/23 06:05:28;;;;;;;0.40;0.40;;;2.90;99.90;;;;;;4407616;32;20137;-62
2024/04/23 06:07:55;;;;;;;0.55;0.55;;;2.90;99.90;;;;;;4384686;32;20321;-61
2024/04/23 06:10:21;;;;;;;1.45;1.02;;;3.00;99.90;;;;;;4378865;32;20943;-62
2024/04/23 06:12:48;;;;;;;0.80;0.80;;;3.00;99.90;;;;;;4410759;32;20169;-61
2024/04/23 06:15:13;;;;;;;0.35;0.35;;;3.10;99.90;;;;;;4397430;32;20167;-62
2024/04/23 06:17:40;;;;;;;3.40;1.00;;;3.20;99.90;;;;;;4408134;32;20088;-61
2024/04/23 06:20:07;;;;;;;0.80;0.75;;;3.30;99.90;;;;;;4409566;32;20302;-62
2024/04/23 06:22:36;;;;;;;3.53;1.00;;;3.30;99.90;;;;;;4386385;32;20102;-61
2024/04/23 06:25:03;;;;;;;0.37;0.37;;;3.30;99.90;;;;;;4394173;32;20097;-60
2024/04/23 06:27:31;;;;;;;0.40;0.40;;;3.40;99.90;;;;;;4393061;32;20597;-62
2024/04/23 06:30:17;;;;;;;0.62;0.62;;;3.50;99.90;;;;;;4398644;32;20872;-62
2024/04/23 06:32:43;;;;;;;0.35;0.35;;;3.50;99.90;;;;;;4393741;32;20715;-63
2024/04/23 06:35:09;;;;;;;0.70;0.68;;;3.50;99.90;;;;;;4396131;32;20097;-62
2024/04/23 06:37:36;;;;;;;0.40;0.40;;;3.60;99.90;;;;;;4381293;32;20120;-62
2024/04/23 06:40:06;;;;;;;0.70;0.70;;;3.70;99.90;;;;;;4406266;32;20542;-62
2024/04/23 06:42:32;;;;;;;0.40;0.40;;;3.80;99.90;;;;;;4408508;32;20092;-62
2024/04/23 06:44:58;;;;;;;0.50;0.50;;;3.90;99.90;;;;;;4412354;32;20168;-62
2024/04/23 06:47:24;;;;;;;0.30;0.30;;;4.00;99.90;;;;;;4406916;32;20097;-62
2024/04/23 06:49:50;;;;;;;0.30;0.30;;;4.00;99.90;;;;;;4412942;32;20609;-62
2024/04/23 06:52:17;;;;;;;0.30;0.30;;;4.10;99.90;;;;;;4412362;32;20085;-62
2024/04/23 06:54:43;;;;;;;0.40;0.40;;;4.20;99.90;;;;;;4407294;32;20857;-62
2024/04/23 06:57:08;;;;;;;0.40;0.40;;;4.20;99.90;;;;;;4411784;32;20076;-62
2024/04/23 06:59:34;;;;;;;0.30;0.30;;;4.30;99.90;;;;;;4406276;32;20669;-62
2024/04/23 07:02:00;;;;;;;0.30;0.30;;;4.40;99.90;;;;;;4405880;32;20163;-63
2024/04/23 07:04:25;;;;;;;0.40;0.40;;;4.40;99.90;;;;;;4397445;32;20085;-62
2024/04/23 07:06:53;;;;;;;0.30;0.30;;;4.40;99.90;;;;;;4401951;32;20086;-62
2024/04/23 07:09:20;;;;;;;0.70;0.60;;;4.50;99.90;;;;;;4408465;32;20151;-61
2024/04/23 07:11:45;;;;;;;0.30;0.30;;;4.50;99.90;;;;;;4406543;32;20077;-62
2024/04/23 07:14:11;;;;;;;0.30;0.30;;;4.60;99.90;;;;;;4409337;32;20097;-62
2024/04/23 07:16:36;;;;;;;0.40;0.40;;;4.60;99.90;;;;;;4403909;32;20093;-62
2024/04/23 07:19:02;;;;;;;0.30;0.30;;;4.80;99.90;;;;;;4391126;32;20691;-62
2024/04/23 07:21:28;;;;;;;3.47;1.30;;;4.90;99.90;;;;;;4409155;32;20088;-60
2024/04/23 07:23:53;;;;;;;0.40;0.40;;;5.00;99.90;;;;;;4389235;32;20560;-61
2024/04/23 07:26:19;;;;;;;0.52;0.52;;;5.00;99.90;;;;;;4410080;32;20084;-61
2024/04/23 07:28:45;;;;;;;0.50;0.50;;;5.10;99.90;;;;;;4398575;32;20928;-60
2024/04/23 07:31:10;;;;;;;0.40;0.40;;;5.20;99.90;;;;;;4404334;32;20112;-61
2024/04/23 07:33:36;;;;;;;0.30;0.30;;;5.20;99.90;;;;;;4404083;32;20074;-62
2024/04/23 07:36:01;;;;;;;0.70;0.70;;;5.20;99.90;;;;;;4408646;32;20085;-61
2024/04/23 07:38:27;;;;;;;0.30;0.30;;;5.20;99.90;;;;;;4406097;32;20080;-61
2024/04/23 07:40:53;;;;;;;0.30;0.30;;;5.30;99.90;;;;;;4405264;32;20104;-62
2024/04/23 07:43:18;;;;;;;0.73;0.70;;;5.30;99.90;;;;;;4409126;32;20082;-62
2024/04/23 07:45:44;;;;;;;0.30;0.30;;;5.30;99.90;;;;;;4412523;32;20076;-61
2024/04/23 07:48:09;;;;;;;0.32;0.32;;;5.50;99.90;;;;;;4394808;32;20104;-62
2024/04/23 07:50:36;;;;;;;0.30;0.30;;;5.70;99.90;;;;;;4392655;32;20690;-62
2024/04/23 07:53:04;;;;;;;0.30;0.30;;;5.90;99.90;;;;;;4374807;32;20477;-62
2024/04/23 07:55:29;;;;;;;0.30;0.30;;;6.00;99.90;;;;;;4390340;32;20776;-61
2024/04/23 07:57:55;;;;;;;3.10;0.70;;;6.00;99.90;;;;;;4400408;32;20915;-61
2024/04/23 08:00:23;;;;;;;0.40;0.40;;;6.10;99.90;;;;;;4396082;32;20058;-60
2024/04/23 08:02:53;;;;;;;0.60;0.60;;;6.20;99.90;;;;;;4389832;32;20725;-62
2024/04/23 08:05:19;;;;;;;;;;;6.40;99.90;;;;;;4390945;32;20097;-61
2024/04/23 08:07:45;;;;;;;0.30;0.30;;;6.40;99.90;;;;;;4410296;32;20454;-61
2024/04/23 08:10:11;;;;;;;0.30;0.30;;;6.40;99.90;;;;;;4403354;32;20097;-61
2024/04/23 08:12:38;;;;;;;1.35;0.68;;;6.50;99.90;;;;;;4400380;32;20073;-61
2024/04/23 08:15:04;;;;;;;0.30;0.30;;;6.60;99.90;;;;;;4396797;32;21229;-61
2024/04/23 08:17:30;;;;;;;0.30;0.30;;;6.60;99.90;;;;;;4398478;32;20510;-62
2024/04/23 08:19:55;;;;;;;0.30;0.30;;;6.70;99.90;;;;;;4398425;32;20068;-61
2024/04/23 08:22:21;;;;;;;0.50;0.50;;;6.70;99.90;;;;;;4403954;32;20230;-61
2024/04/23 08:24:47;;;;;;;0.30;0.30;;;6.90;99.90;;;;;;4400016;32;21352;-61
2024/04/23 08:27:12;;;;;;;0.32;0.32;;;6.90;99.90;;;;;;4401535;32;20077;-59
2024/04/23 08:29:38;;;;;;;6.18;0.90;;;6.80;99.90;;;;;;4389699;32;20760;-60
2024/04/23 08:32:04;;;;;;;0.28;0.28;;;6.80;99.90;;;;;;4389274;32;20773;-61
2024/04/23 08:34:29;;;;;;;0.50;0.50;;;6.90;99.90;;;;;;4400002;32;20117;-61
2024/04/23 08:36:55;;;;;;;0.47;0.45;;;7.10;99.90;;;;;;4394456;32;20085;-61
2024/04/23 08:39:21;;;;;;;0.30;0.30;;;7.10;99.90;;;;;;4402064;32;20088;-58
2024/04/23 08:41:48;;;;;;;1.65;0.90;;;7.20;99.90;;;;;;4405904;32;20615;-61
2024/04/23 08:44:14;;;;;;;0.30;0.30;;;7.40;99.90;;;;;;4386647;32;21513;-61
2024/04/23 08:46:40;;;;;;;0.37;0.37;;;7.40;99.90;;;;;;4405218;32;20081;-61
2024/04/23 08:49:07;;;;;;;0.30;0.30;;;7.50;99.90;;;;;;4395799;32;20568;-60
2024/04/23 08:51:33;;;;;;;0.20;0.20;;;7.40;99.90;;;;;;4392909;32;20073;-61
2024/04/23 08:54:00;;;;;;;0.30;0.30;;;7.40;99.90;;;;;;4376563;32;20611;-60
2024/04/23 08:56:34;;;;;;;0.30;0.30;;;7.60;99.90;;;;;;4367686;32;20563;-62
2024/04/23 08:59:03;;;;;;;0.40;0.40;;;7.70;99.90;;;;;;4403871;32;20072;-63
2024/04/23 09:01:34;;;;;;;0.47;0.47;;;7.70;99.90;;;;;;4406489;32;20541;-62
2024/04/23 09:04:02;;;;;;;0.40;0.40;;;7.90;99.90;;;;;;4380989;32;20699;-63
2024/04/23 09:06:29;;;;;;;0.30;0.30;;;8.00;99.90;;;;;;4403275;32;20158;-61
2024/04/23 09:08:57;;;;;;;0.35;0.35;;;8.00;99.90;;;;;;4375249;32;21432;-62
2024/04/23 09:11:25;;;;;;;4.18;1.65;;;8.00;99.90;;;;;;4395962;32;20965;-64
2024/04/23 09:13:51;;;;;;;0.30;0.30;;;8.10;99.90;;;;;;4397668;32;20074;-63
2024/04/23 09:16:17;;;;;;;0.35;0.35;;;8.20;99.90;;;;;;4397891;32;20148;-64
2024/04/23 09:18:42;;;;;;;0.50;0.50;;;8.20;99.90;;;;;;4392941;32;20073;-63
2024/04/23 09:21:08;;;;;;;0.50;0.50;;;8.30;99.90;;;;;;4385749;32;20160;-63
2024/04/23 09:23:34;;;;;;;0.30;0.30;;;8.40;99.90;;;;;;4392714;32;20098;-63
2024/04/23 09:26:01;;;;;;;0.30;0.30;;;8.40;99.90;;;;;;4405202;32;20682;-63
2024/04/23 09:28:32;;;;;;;0.30;0.30;;;8.50;99.90;;;;;;4401525;32;20643;-62
2024/04/23 09:30:58;;;;;;;0.47;0.30;;;8.70;99.90;;;;;;4405858;32;20105;-62
2024/04/23 09:33:25;;;;;;;0.30;0.30;;;8.90;99.90;;;;;;4406927;32;21224;-62
2024/04/23 09:36:09;;;;;;;0.50;0.50;;;9.10;99.90;;;;;;4415762;32;20072;-61
2024/04/23 09:38:36;;;;;;;0.43;0.43;;;9.30;99.90;;;;;;4390652;32;20588;-62
2024/04/23 09:41:03;;;;;;;0.30;0.30;;;9.20;99.10;;;;;;4417130;32;20077;-62
2024/04/23 09:43:29;;;;;;;3.03;0.82;;;9.10;99.90;;;;;;4420655;32;20218;-62
2024/04/23 09:45:55;;;;;;;0.40;0.40;;;9.30;99.90;;;;;;4418899;32;20084;-62
2024/04/23 09:48:38;;;;;;;0.30;0.30;;;9.60;99.90;;;;;;4410101;32;20065;-60
2024/04/23 09:51:05;;;;;;;0.32;0.32;;;9.60;99.90;;;;;;4412116;32;20450;-61
2024/04/23 09:53:33;;;;;;;0.40;0.40;;;9.60;99.50;;;;;;4387088;32;20844;-61
2024/04/23 09:56:02;;;;;;;0.40;0.40;;;9.80;97.90;;;;;;4392581;32;20451;-62
2024/04/23 09:58:29;;;;;;;0.45;0.45;;;10.10;98.50;;;;;;4402520;32;20705;-60
2024/04/23 10:00:56;;;;;;;0.30;0.30;;;10.40;98.10;;;;;;4388055;32;20140;-61
2024/04/23 10:03:24;;;;;;;0.30;0.30;;;10.50;96.90;;;;;;4405028;32;20232;-61
2024/04/23 10:05:50;;;;;;;0.30;0.30;;;10.60;95.90;;;;;;4401194;32;20496;-61
2024/04/23 10:08:27;;;;;;;0.40;0.40;;;10.70;97.20;;;;;;4397269;32;20458;-61
2024/04/23 10:10:54;;;;;;;0.40;0.40;;;10.80;96.70;;;;;;4410743;32;21667;-60
2024/04/23 10:13:27;;;;;;;0.40;0.40;;;11.00;97.50;;;;;;4407503;32;20093;-61
2024/04/23 10:16:02;;;;;;;0.30;0.30;;;10.90;95.40;;;;;;4405518;32;20065;-62
2024/04/23 10:18:34;;;;;;;0.40;0.40;;;11.10;94.90;;;;;;4400282;32;20187;-63
2024/04/23 10:21:05;;;;;;;0.40;0.40;;;11.40;96.20;;;;;;4396660;32;20965;-63
2024/04/23 10:23:32;;;;;;;;;;;11.50;95.40;;;;;;4408807;32;20105;-62
2024/04/23 10:25:58;;;;;;;0.30;0.30;;;11.80;95.60;;;;;;4412835;32;19953;-61
2024/04/23 10:28:26;;;;;;;0.32;0.32;;;11.80;92.10;;;;;;4419642;32;20540;-62
2024/04/23 10:30:53;;;;;;;0.35;0.35;;;11.50;93.20;;;;;;4418785;32;20609;-62
2024/04/23 10:33:21;;;;;;;0.37;0.37;;;11.90;93.70;;;;;;4408873;32;20423;-61
2024/04/23 10:35:47;;;;;;;0.85;0.85;;;11.90;92.10;;;;;;4421849;32;20054;-62
2024/04/23 10:38:16;;;;;;;0.30;0.30;;;11.50;91.70;;;;;;4425166;32;20512;-62
2024/04/23 10:40:46;;;;;;;0.40;0.40;;;11.80;91.30;;;;;;4424204;32;20245;-62
2024/04/23 10:43:14;;;;;;;0.30;0.30;;;11.90;90.60;;;;;;4408573;32;20077;-63
2024/04/23 10:45:40;;;;;;;0.30;0.30;;;12.00;91.30;;;;;;4406670;32;20236;-63
2024/04/23 10:48:08;;;;;;;0.37;0.37;;;12.40;91.80;;;;;;4424647;32;20073;-62
2024/04/23 10:50:34;;;;;;;0.47;0.47;;;12.60;91.60;;;;;;4406205;32;20548;-63
2024/04/23 10:53:03;;;;;;;0.30;0.30;;;12.70;90.20;;;;;;4412526;32;20694;-63
2024/04/23 10:55:29;;;;;;;0.37;0.37;;;12.70;89.90;;;;;;4404282;32;21237;-62
2024/04/23 10:57:56;;;;;;;0.30;0.30;;;12.20;89.30;;;;;;4402570;32;20821;-61
2024/04/23 11:00:26;;;;;;;0.45;0.45;;;11.50;87.00;;;;;;4396483;32;20917;-63
2024/04/23 11:02:52;;;;;;;2.33;1.17;;;11.50;88.70;;;;;;4382885;32;20105;-62
2024/04/23 11:05:18;;;;;;;0.35;0.35;;;12.10;90.40;;;;;;4410092;32;20769;-62
2024/04/23 11:07:49;;;;;;;0.37;0.37;;;12.50;87.40;;;;;;4376592;32;20098;-63
2024/04/23 11:10:18;;;;;;;;;;;12.50;86.00;;;;;;4408503;32;20604;-62
2024/04/23 11:12:45;;;;;;;0.40;0.40;;;13.00;83.20;;;;;;4403273;32;20286;-61
2024/04/23 11:15:16;;;;;;;0.35;0.35;;;13.20;82.90;;;;;;4394916;32;20077;-63
2024/04/23 11:17:42;;;;;;;0.45;0.37;;;13.50;80.90;;;;;;4398731;32;21588;-63
2024/04/23 11:20:08;;;;;;;0.37;0.37;;;13.90;80.40;;;;;;4406584;32;20084;-62
2024/04/23 11:22:49;;;;;;;0.30;0.30;;;14.10;80.80;;;;;;4405820;32;20147;-63
2024/04/23 11:25:26;;;;;;;0.30;0.30;;;13.90;80.90;;;;;;4406993;32;20506;-63
2024/04/23 11:27:52;;;;;;;1.77;0.75;;;14.00;81.80;;;;;;4407880;32;20064;-62
2024/04/23 11:30:18;;;;;;;0.40;0.40;;;14.50;82.40;;;;;;4399112;32;20375;-63
2024/04/23 11:32:44;;;;;;;0.40;0.40;;;14.80;80.50;;;;;;4406601;32;20097;-64
2024/04/23 11:35:13;;;;;;;0.40;0.40;;;15.00;79.40;;;;;;4407859;32;20838;-64
2024/04/23 11:37:39;;;;;;;0.52;0.52;;;15.10;74.60;;;;;;4400613;32;20069;-62
2024/04/23 11:40:05;;;;;;;1.17;0.62;;;15.50;75.90;;;;;;4405197;32;20117;-62
2024/04/23 11:42:32;;;;;;;0.30;0.30;;;15.50;77.90;;;;;;4415959;32;20878;-62
2024/04/23 11:45:00;;;;;;;0.40;0.40;;;15.40;74.20;;;;;;4383854;32;20085;-62
2024/04/23 11:47:27;;;;;;;0.50;0.50;;;14.80;79.40;;;;;;4412776;32;21049;-61
2024/04/23 11:49:53;;;;;;;0.50;0.50;;;15.00;75.90;;;;;;4389085;32;20093;-61
2024/04/23 11:52:20;;;;;;;0.37;0.37;;;14.80;79.50;;;;;;4414670;32;20176;-61
2024/04/23 11:54:46;;;;;;;0.37;0.37;;;14.80;79.50;;;;;;4416103;32;91867;-62
2024/04/23 11:57:12;;;;;;;0.30;0.30;;;14.60;79.20;;;;;;4412231;32;20104;-62
2024/04/23 11:59:42;;;;;;;0.40;0.40;;;15.30;80.30;;;;;;4415240;32;20849;-62
2024/04/23 12:02:09;;;;;;;0.57;0.57;;;16.00;77.30;;;;;;4405078;32;20414;-61
2024/04/23 12:04:37;;;;;;;0.30;0.30;;;16.00;71.00;;;;;;4404846;32;20865;-61
2024/04/23 12:07:03;;;;;;;0.37;0.37;;;15.40;69.20;;;;;;4419812;32;20089;-62
2024/04/23 12:09:31;;;;;;;0.30;0.30;;;14.40;74.70;;;;;;4410359;32;20489;-61
2024/04/23 12:11:58;;;;;;;0.40;0.40;;;13.70;73.10;;;;;;4403353;32;20424;-61
2024/04/23 12:14:26;;;;;;;25.45;0.75;;;13.10;74.30;;;;;;4414533;32;20089;-61
2024/04/23 12:16:51;;;;;;;0.40;0.40;;;12.80;77.20;;;;;;4391553;32;20102;-63
2024/04/23 12:19:17;;;;;;;0.45;0.40;;;12.70;77.40;;;;;;4403658;32;20128;-61
2024/04/23 12:21:43;;;;;;;0.30;0.30;;;12.80;77.80;;;;;;4398116;32;20092;-60
2024/04/23 12:24:14;;;;;;;0.30;0.30;;;12.60;76.90;;;;;;4408408;32;20089;-61
2024/04/23 12:26:40;;;;;;;0.40;0.40;;;12.40;78.70;;;;;;4401147;32;20152;-61
2024/04/23 12:29:06;;;;;;;0.40;0.40;;;12.30;77.10;;;;;;4423318;32;20097;-62
2024/04/23 12:31:32;;;;;;;0.43;0.43;;;13.20;77.70;;;;;;4430895;32;20093;-65
2024/04/23 12:33:58;;;;;;;0.30;0.30;;;14.20;76.50;;;;;;4410780;32;21107;-62
2024/04/23 12:36:23;;;;;;;0.45;0.45;;;14.70;71.60;;;;;;4396688;32;20968;-62
2024/04/23 12:38:49;;;;;;;0.40;0.40;;;14.20;72.00;;;;;;4401224;32;20415;-62
2024/04/23 12:41:18;;;;;;;0.40;0.40;;;14.50;68.00;;;;;;4412413;32;20065;-63
2024/04/23 12:43:44;;;;;;;0.40;0.40;;;15.00;68.40;;;;;;4408305;32;20073;-62
2024/04/23 12:46:11;;;;;;;0.20;0.20;;;15.50;70.50;;;;;;4411678;32;20089;-62
2024/04/23 12:48:37;;;;;;;3.55;1.10;;;16.20;68.80;;;;;;4409331;32;20093;-61
2024/04/23 12:51:03;;;;;;;0.40;0.40;;;16.50;67.40;;;;;;4427786;32;20555;-61
2024/04/23 12:53:29;;;;;;;0.30;0.30;;;17.10;68.90;;;;;;4412956;32;20064;-62
2024/04/23 12:55:55;;;;;;;0.30;0.30;;;17.20;67.50;;;;;;4413162;32;20132;-62